createdAt,value
2022-09-04T00:00:57.540Z,100670.96
2022-09-04T00:02:36.208Z,100667.03
2022-09-04T00:03:43.179Z,100662.48
2022-09-04T00:04:50.331Z,100661.64
2022-09-04T00:06:00.400Z,100663.33
2022-09-04T00:07:19.107Z,100661.47
2022-09-04T00:08:26.184Z,100661.47
2022-09-04T00:09:33.171Z,100663.46
2022-09-04T00:10:40.243Z,100671.55
2022-09-04T00:11:50.036Z,100668.01
2022-09-04T00:13:11.983Z,100667.87
2022-09-04T00:14:21.241Z,100671.55
2022-09-04T00:15:28.255Z,100668.71
2022-09-04T00:16:47.147Z,100670.12
2022-09-04T00:17:56.856Z,100675.78
2022-09-04T00:19:18.627Z,100667.87
2022-09-04T00:20:29.103Z,100674.10
2022-09-04T00:21:41.708Z,100669.86
2022-09-04T00:22:48.676Z,100670.00
2022-09-04T00:24:01.460Z,100671.19
2022-09-04T00:25:20.389Z,100671.19
2022-09-04T00:26:43.444Z,100663.10
2022-09-04T00:27:50.354Z,100662.23
2022-09-04T00:29:03.026Z,100666.07
2022-09-04T00:30:10.340Z,100661.16
2022-09-04T00:31:38.277Z,100664.53
2022-09-04T00:32:45.641Z,100662.00
2022-09-04T00:34:10.383Z,100662.00
2022-09-04T00:35:29.343Z,100667.13
2022-09-04T00:36:36.630Z,100666.59
2022-09-04T00:37:46.402Z,100666.59
2022-09-04T00:38:56.059Z,100665.22
2022-09-04T00:40:03.106Z,100668.89
2022-09-04T00:41:26.560Z,100665.36
2022-09-04T00:42:53.196Z,100665.36
2022-09-04T00:44:19.192Z,100676.73
2022-09-04T00:45:43.916Z,100675.89
2022-09-04T00:46:59.508Z,100675.89
2022-09-04T00:48:39.260Z,100670.51
2022-09-04T00:50:22.046Z,100667.72
2022-09-04T00:51:43.807Z,100667.72
2022-09-04T00:53:17.495Z,100668.30
2022-09-04T00:54:45.031Z,100662.51
2022-09-04T00:56:00.570Z,100659.68
2022-09-04T00:57:37.736Z,100668.77
2022-09-04T00:58:47.199Z,100668.77
2022-09-04T01:00:08.848Z,100638.48
2022-09-04T01:01:17.372Z,100638.48
2022-09-04T01:02:42.253Z,100671.59
2022-09-04T01:04:05.520Z,100666.81
2022-09-04T01:05:22.466Z,100664.96
2022-09-04T01:06:36.024Z,100668.80
2022-09-04T01:07:46.418Z,100669.09
2022-09-04T01:09:12.947Z,100669.39
2022-09-04T01:10:29.378Z,100669.39
2022-09-04T01:11:52.707Z,100671.34
2022-09-04T01:13:28.447Z,100671.95
2022-09-04T01:14:44.316Z,100671.95
2022-09-04T01:16:07.853Z,100665.85
2022-09-04T01:17:35.609Z,100665.85
2022-09-04T01:18:51.680Z,100667.13
2022-09-04T01:20:31.660Z,100662.75
2022-09-04T01:21:56.365Z,100662.75
2022-09-04T01:23:03.279Z,100668.13
2022-09-04T01:24:31.386Z,100670.83
2022-09-04T01:25:54.866Z,100670.83
2022-09-04T01:27:18.359Z,100666.88
2022-09-04T01:28:32.507Z,100662.64
2022-09-04T01:29:54.328Z,100661.09
2022-09-04T01:31:01.442Z,100664.62
2022-09-04T01:32:17.173Z,100664.62
2022-09-04T01:33:26.940Z,100661.22
2022-09-04T01:34:54.708Z,100657.55
2022-09-04T01:36:25.897Z,100659.97
2022-09-04T01:37:46.316Z,100662.11
2022-09-04T01:39:01.966Z,100662.11
2022-09-04T01:40:35.612Z,100661.11
2022-09-04T01:41:38.655Z,100661.11
2022-09-04T01:43:09.454Z,100664.68
2022-09-04T01:44:13.590Z,100657.62
2022-09-04T01:45:20.552Z,100660.14
2022-09-04T01:46:31.833Z,100660.14
2022-09-04T01:47:44.550Z,100654.34
2022-09-04T01:48:54.387Z,100635.86
2022-09-04T01:50:01.311Z,100659.89
2022-09-04T01:51:08.294Z,100662.70
2022-09-04T01:52:15.198Z,100659.05
2022-09-04T01:53:28.199Z,100658.17
2022-09-04T01:54:45.076Z,100654.80
2022-09-04T01:56:03.535Z,100660.18
2022-09-04T01:57:10.500Z,100659.60
2022-09-04T01:58:23.786Z,100659.60
2022-09-04T01:59:30.835Z,100657.75
2022-09-04T02:00:58.151Z,100657.75
2022-09-04T02:02:12.224Z,100662.45
2022-09-04T02:03:35.351Z,100662.16
2022-09-04T02:04:42.351Z,100661.31
2022-09-04T02:05:49.347Z,100663.30
2022-09-04T02:07:08.835Z,100663.00
2022-09-04T02:08:30.465Z,100662.45
2022-09-04T02:09:50.067Z,100665.14
2022-09-04T02:11:04.743Z,100665.14
2022-09-04T02:12:20.365Z,100659.77
2022-09-04T02:13:45.108Z,100659.77
2022-09-04T02:14:52.139Z,100663.45
2022-09-04T02:16:08.337Z,100667.69
2022-09-04T02:17:20.470Z,100664.32
2022-09-04T02:18:27.485Z,100664.32
2022-09-04T02:19:58.587Z,100655.39
2022-09-04T02:21:07.121Z,100657.80
2022-09-04T02:22:22.649Z,100655.97
2022-09-04T02:23:41.620Z,100657.37
2022-09-04T02:25:12.874Z,100653.14
2022-09-04T02:26:53.226Z,100654.27
2022-09-04T02:28:01.664Z,100653.42
2022-09-04T02:29:14.105Z,100653.84
2022-09-04T02:30:20.406Z,100649.59
2022-09-04T02:31:48.575Z,100667.55
2022-09-04T02:33:11.970Z,100663.19
2022-09-04T02:34:39.671Z,100663.19
2022-09-04T02:35:58.711Z,100664.44
2022-09-04T02:37:11.943Z,100659.63
2022-09-04T02:38:27.330Z,100664.16
2022-09-04T02:39:40.023Z,100669.53
2022-09-04T02:41:15.554Z,100668.69
2022-09-04T02:42:46.709Z,100666.13
2022-09-04T02:44:15.769Z,100674.06
2022-09-04T02:45:43.321Z,100672.50
2022-09-04T02:47:06.815Z,100676.88
2022-09-04T02:48:33.318Z,100675.59
2022-09-04T02:50:00.596Z,100671.91
2022-09-04T02:51:12.710Z,100669.23
2022-09-04T02:52:22.370Z,100669.23
2022-09-04T02:53:52.028Z,100669.95
2022-09-04T02:55:16.903Z,100673.75
2022-09-04T02:56:35.470Z,100673.75
2022-09-04T02:58:09.535Z,100672.32
2022-09-04T02:59:28.629Z,100676.97
2022-09-04T03:00:44.571Z,100682.90
2022-09-04T03:02:00.638Z,100679.09
2022-09-04T03:03:19.504Z,100679.09
2022-09-04T03:04:41.422Z,100667.63
2022-09-04T03:06:00.479Z,100677.41
2022-09-04T03:07:10.361Z,100677.53
2022-09-04T03:08:22.814Z,100678.38
2022-09-04T03:09:35.507Z,100678.38
2022-09-04T03:10:44.603Z,100675.13
2022-09-04T03:11:52.843Z,100675.13
2022-09-04T03:13:05.887Z,100675.22
2022-09-04T03:14:21.409Z,100678.77
2022-09-04T03:15:39.921Z,100674.25
2022-09-04T03:16:52.543Z,100677.05
2022-09-04T03:18:02.568Z,100676.09
2022-09-04T03:19:41.119Z,100676.09
2022-09-04T03:20:54.137Z,100679.02
2022-09-04T03:22:10.127Z,100679.02
2022-09-04T03:23:22.961Z,100663.20
2022-09-04T03:24:32.828Z,100675.77
2022-09-04T03:26:04.652Z,100675.77
2022-09-04T03:27:13.188Z,100674.77
2022-09-04T03:28:42.654Z,100674.37
2022-09-04T03:30:01.611Z,100675.97
2022-09-04T03:31:31.017Z,100673.16
2022-09-04T03:32:57.429Z,100679.50
2022-09-04T03:34:39.696Z,100682.50
2022-09-04T03:35:52.653Z,100681.98
2022-09-04T03:37:09.035Z,100681.98
2022-09-04T03:38:36.421Z,100680.30
2022-09-04T03:40:09.131Z,100676.31
2022-09-04T03:41:31.076Z,100676.31
2022-09-04T03:42:49.967Z,100677.87
2022-09-04T03:44:05.881Z,100677.87
2022-09-04T03:45:12.795Z,100682.70
2022-09-04T03:46:53.192Z,100687.17
2022-09-04T03:48:19.379Z,100692.37
2022-09-04T03:49:40.701Z,100692.52
2022-09-04T03:51:03.049Z,100685.59
2022-09-04T03:52:36.996Z,100692.52
2022-09-04T03:54:02.131Z,100696.72
2022-09-04T03:55:25.526Z,100696.72
2022-09-04T03:56:38.695Z,100697.16
2022-09-04T03:58:05.571Z,100699.27
2022-09-04T03:59:15.101Z,100699.27
2022-09-04T04:00:22.524Z,100694.08
2022-09-04T04:01:41.346Z,100703.08
2022-09-04T04:03:10.870Z,100709.03
2022-09-04T04:04:49.403Z,100704.73
2022-09-04T04:06:03.663Z,100701.01
2022-09-04T04:07:39.134Z,100706.94
2022-09-04T04:09:03.754Z,100706.94
2022-09-04T04:10:11.225Z,100709.66
2022-09-04T04:11:32.865Z,100705.63
2022-09-04T04:12:59.378Z,100707.49
2022-09-04T04:14:24.340Z,100707.49
2022-09-04T04:15:53.571Z,100705.95
2022-09-04T04:17:20.675Z,100700.34
2022-09-04T04:18:36.232Z,100699.00
2022-09-04T04:20:02.515Z,100699.00
2022-09-04T04:21:24.198Z,100708.42
2022-09-04T04:22:36.359Z,100713.07
2022-09-04T04:24:02.389Z,100713.07
2022-09-04T04:25:21.021Z,100712.28
2022-09-04T04:26:46.014Z,100729.98
2022-09-04T04:27:58.550Z,100718.66
2022-09-04T04:29:09.331Z,100719.64
2022-09-04T04:30:17.572Z,100727.56
2022-09-04T04:31:43.696Z,100726.62
2022-09-04T04:33:09.832Z,100726.56
2022-09-04T04:34:28.627Z,100721.21
2022-09-04T04:35:52.042Z,100721.21
2022-09-04T04:37:13.732Z,100729.80
2022-09-04T04:38:34.891Z,100728.91
2022-09-04T04:39:41.933Z,100732.66
2022-09-04T04:41:09.819Z,100732.91
2022-09-04T04:42:37.644Z,100739.78
2022-09-04T04:43:53.321Z,100744.41
2022-09-04T04:45:18.269Z,100736.26
2022-09-04T04:46:43.631Z,100732.03
2022-09-04T04:48:23.404Z,100740.33
2022-09-04T04:50:04.735Z,100740.33
2022-09-04T04:51:33.571Z,100643.34
2022-09-04T04:52:51.852Z,100643.34
2022-09-04T04:54:13.662Z,100734.60
2022-09-04T04:55:25.939Z,100738.75
2022-09-04T04:56:59.938Z,100745.02
2022-09-04T04:58:21.521Z,100744.30
2022-09-04T04:59:45.086Z,100750.06
2022-09-04T05:01:14.497Z,100743.64
2022-09-04T05:02:21.709Z,100743.67
2022-09-04T05:03:31.533Z,100745.84
2022-09-04T05:04:59.713Z,100750.24
2022-09-04T05:06:12.521Z,100750.24
2022-09-04T05:07:28.126Z,100748.19
2022-09-04T05:08:40.899Z,100746.36
2022-09-04T05:10:02.537Z,100746.36
2022-09-04T05:11:28.522Z,100749.73
2022-09-04T05:12:35.492Z,100745.64
2022-09-04T05:13:54.346Z,100751.07
2022-09-04T05:15:04.219Z,100759.89
2022-09-04T05:16:28.112Z,100754.13
2022-09-04T05:17:40.997Z,100752.28
2022-09-04T05:18:59.672Z,100735.27
2022-09-04T05:20:16.972Z,100753.84
2022-09-04T05:21:24.012Z,100753.84
2022-09-04T05:22:36.756Z,100760.61
2022-09-04T05:23:43.783Z,100755.30
2022-09-04T05:24:54.057Z,100756.71
2022-09-04T05:26:01.992Z,100756.71
2022-09-04T05:27:09.025Z,100751.56
2022-09-04T05:28:37.096Z,100751.56
2022-09-04T05:30:00.624Z,100757.00
2022-09-04T05:31:16.661Z,100757.67
2022-09-04T05:32:32.327Z,100771.55
2022-09-04T05:33:55.897Z,100755.33
2022-09-04T05:35:16.212Z,100762.17
2022-09-04T05:36:28.854Z,100763.67
2022-09-04T05:37:47.617Z,100762.28
2022-09-04T05:39:17.369Z,100762.28
2022-09-04T05:40:30.543Z,100763.20
2022-09-04T05:41:43.228Z,100766.66
2022-09-04T05:42:58.886Z,100765.92
2022-09-04T05:44:32.911Z,100765.16
2022-09-04T05:45:42.674Z,100771.89
2022-09-04T05:47:13.556Z,100771.89
2022-09-04T05:48:26.558Z,100773.98
2022-09-04T05:49:45.681Z,100773.98
2022-09-04T05:51:07.596Z,100765.82
2022-09-04T05:52:34.044Z,100765.82
2022-09-04T05:53:52.995Z,100774.81
2022-09-04T05:55:21.190Z,100788.14
2022-09-04T05:56:44.922Z,100784.02
2022-09-04T05:58:08.321Z,100790.78
2022-09-04T05:59:37.519Z,100789.53
2022-09-04T06:01:07.424Z,100789.53
2022-09-04T06:02:19.805Z,100784.09
2022-09-04T06:03:45.024Z,100784.09
2022-09-04T06:05:25.087Z,100793.50
2022-09-04T06:06:50.331Z,100788.90
2022-09-04T06:07:57.329Z,100788.90
2022-09-04T06:09:04.425Z,100790.30
2022-09-04T06:10:11.930Z,100796.41
2022-09-04T06:11:40.024Z,100799.13
2022-09-04T06:13:10.775Z,100799.76
2022-09-04T06:14:48.470Z,100799.96
2022-09-04T06:16:10.501Z,100792.19
2022-09-04T06:17:29.515Z,100783.46
2022-09-04T06:18:51.384Z,100790.78
2022-09-04T06:20:10.315Z,100787.20
2022-09-04T06:21:17.296Z,100789.28
2022-09-04T06:22:32.995Z,100789.28
2022-09-04T06:24:11.921Z,100797.72
2022-09-04T06:25:23.490Z,100797.62
2022-09-04T06:26:30.983Z,100796.76
2022-09-04T06:27:55.804Z,100796.76
2022-09-04T06:29:29.672Z,100807.25
2022-09-04T06:31:00.715Z,100806.63
2022-09-04T06:32:26.976Z,100798.26
2022-09-04T06:33:42.918Z,100710.16
2022-09-04T06:34:58.910Z,100813.00
2022-09-04T06:36:23.459Z,100808.78
2022-09-04T06:37:52.433Z,100804.53
2022-09-04T06:39:24.770Z,100801.74
2022-09-04T06:40:54.604Z,100811.38
2022-09-04T06:42:19.319Z,100819.84
2022-09-04T06:43:32.249Z,100819.84
2022-09-04T06:44:39.263Z,100819.29
2022-09-04T06:45:51.845Z,100818.34
2022-09-04T06:47:00.629Z,100818.34
2022-09-04T06:48:10.503Z,100812.90
2022-09-04T06:49:26.467Z,100812.90
2022-09-04T06:50:36.475Z,100816.73
2022-09-04T06:52:02.853Z,100817.13
2022-09-04T06:53:09.847Z,100817.13
2022-09-04T06:54:36.738Z,100815.22
2022-09-04T06:56:03.523Z,100813.13
2022-09-04T06:57:16.215Z,100813.83
2022-09-04T06:58:29.103Z,100821.11
2022-09-04T06:59:53.807Z,100821.11
2022-09-04T07:01:06.678Z,100818.18
2022-09-04T07:02:16.395Z,100826.89
2022-09-04T07:03:29.133Z,100824.38
2022-09-04T07:05:01.249Z,100824.38
2022-09-04T07:06:32.055Z,100819.91
2022-09-04T07:07:39.065Z,100814.73
2022-09-04T07:08:46.061Z,100814.73
2022-09-04T07:10:01.564Z,100842.72
2022-09-04T07:11:19.459Z,100842.72
2022-09-04T07:12:26.463Z,100827.13
2022-09-04T07:13:39.441Z,100814.34
2022-09-04T07:14:55.231Z,100810.56
2022-09-04T07:16:22.925Z,100821.20
2022-09-04T07:18:01.252Z,100805.77
2022-09-04T07:19:26.175Z,100812.37
2022-09-04T07:20:35.795Z,100810.30
2022-09-04T07:21:51.751Z,100814.08
2022-09-04T07:23:10.830Z,100824.97
2022-09-04T07:24:50.896Z,100819.13
2022-09-04T07:26:14.236Z,100819.13
2022-09-04T07:27:48.285Z,100806.49
2022-09-04T07:29:16.109Z,100818.23
2022-09-04T07:30:21.036Z,100816.74
2022-09-04T07:31:31.076Z,100819.97
2022-09-04T07:32:54.564Z,100824.97
2022-09-04T07:34:10.391Z,100824.97
2022-09-04T07:35:35.241Z,100816.98
2022-09-04T07:37:00.564Z,100810.12
2022-09-04T07:38:13.464Z,100809.17
2022-09-04T07:39:31.945Z,100800.20
2022-09-04T07:42:53.080Z,100830.98
2022-09-04T07:44:11.751Z,100808.50
2022-09-04T07:45:38.151Z,100809.41
2022-09-04T07:47:01.432Z,100807.31
2022-09-04T07:48:24.894Z,100811.48
2022-09-04T07:49:34.769Z,100810.04
2022-09-04T07:50:44.651Z,100807.18
2022-09-04T07:51:58.139Z,100801.00
2022-09-04T07:53:11.483Z,100809.91
2022-09-04T07:54:23.022Z,100806.67
2022-09-04T07:55:47.528Z,100806.67
2022-09-04T07:57:12.092Z,100799.47
2022-09-04T07:58:34.177Z,100807.49
2022-09-04T07:59:44.183Z,100794.66
2022-09-04T08:01:10.899Z,100803.86
2022-09-04T08:02:29.880Z,100803.86
2022-09-04T08:04:09.951Z,100796.89
2022-09-04T08:05:24.240Z,100796.89
2022-09-04T08:06:37.782Z,100815.02
2022-09-04T08:07:50.231Z,100801.47
2022-09-04T08:09:28.625Z,100801.55
2022-09-04T08:10:52.120Z,100807.71
2022-09-04T08:12:04.645Z,100807.71
2022-09-04T08:13:11.622Z,100799.98
2022-09-04T08:14:42.737Z,100798.43
2022-09-04T08:16:01.294Z,100809.73
2022-09-04T08:17:33.664Z,100809.73
2022-09-04T08:18:45.175Z,100808.35
2022-09-04T08:19:55.339Z,100808.75
2022-09-04T08:21:30.936Z,100810.02
2022-09-04T08:22:59.056Z,100810.02
2022-09-04T08:24:13.199Z,100807.98
2022-09-04T08:25:44.269Z,100806.94
2022-09-04T08:27:06.119Z,100805.70
2022-09-04T08:28:22.261Z,100812.02
2022-09-04T08:29:46.991Z,100808.56
2022-09-04T08:30:59.629Z,100813.18
2022-09-04T08:32:23.097Z,100810.89
2022-09-04T08:33:46.478Z,100806.42
2022-09-04T08:35:13.525Z,100806.42
2022-09-04T08:36:23.801Z,100815.08
2022-09-04T08:37:39.644Z,100807.55
2022-09-04T08:38:49.435Z,100805.66
2022-09-04T08:40:14.273Z,100808.64
2022-09-04T08:41:33.956Z,100803.09
2022-09-04T08:42:46.709Z,100803.09
2022-09-04T08:44:02.766Z,100811.49
2022-09-04T08:45:42.683Z,100810.31
2022-09-04T08:47:02.032Z,100805.70
2022-09-04T08:48:41.872Z,100811.38
2022-09-04T08:49:48.946Z,100808.95
2022-09-04T08:51:07.253Z,100812.63
2022-09-04T08:52:14.638Z,100806.66
2022-09-04T08:53:24.430Z,100809.72
2022-09-04T08:55:06.685Z,100804.39
2022-09-04T08:56:28.742Z,100812.24
2022-09-04T08:57:50.405Z,100811.50
2022-09-04T08:59:03.365Z,100811.50
2022-09-04T09:00:19.245Z,100810.67
2022-09-04T09:01:59.111Z,100818.89
2022-09-04T09:05:17.947Z,100803.98
2022-09-04T09:06:44.408Z,100805.63
2022-09-04T09:07:51.403Z,100817.72
2022-09-04T09:09:31.621Z,100824.56
2022-09-04T09:10:50.577Z,100814.64
2022-09-04T09:12:06.040Z,100804.82
2022-09-04T09:13:24.645Z,100808.53
2022-09-04T09:14:49.857Z,100817.70
2022-09-04T09:16:12.935Z,100795.66
2022-09-04T09:17:35.114Z,100799.98
2022-09-04T09:19:06.125Z,100814.23
2022-09-04T09:20:20.026Z,100814.47
2022-09-04T09:21:55.984Z,100807.66
2022-09-04T09:23:31.421Z,100805.90
2022-09-04T09:24:56.575Z,100812.58
2022-09-04T09:26:18.373Z,100812.58
2022-09-04T09:27:40.054Z,100814.98
2022-09-04T09:28:51.312Z,100813.27
2022-09-04T09:30:17.626Z,100820.03
2022-09-04T09:32:03.803Z,100820.03
2022-09-04T09:33:28.585Z,100809.28
2022-09-04T09:34:50.298Z,100809.28
2022-09-04T09:36:23.660Z,100817.63
2022-09-04T09:37:42.584Z,100816.98
2022-09-04T09:39:11.787Z,100816.98
2022-09-04T09:40:38.281Z,100800.23
2022-09-04T09:41:50.960Z,100805.84
2022-09-04T09:43:17.461Z,100801.73
2022-09-04T09:44:44.261Z,100821.19
2022-09-04T09:45:59.831Z,100821.19
2022-09-04T09:47:38.541Z,100803.15
2022-09-04T09:48:54.303Z,100798.56
2022-09-04T09:50:19.283Z,100801.14
2022-09-04T09:51:59.533Z,100794.91
2022-09-04T09:53:27.255Z,100799.98
2022-09-04T09:54:51.921Z,100799.98
2022-09-04T09:56:00.148Z,100788.23
2022-09-04T09:57:33.387Z,100788.64
2022-09-04T09:58:48.314Z,100784.94
2022-09-04T10:00:06.222Z,100788.17
2022-09-04T10:01:21.740Z,100782.95
2022-09-04T10:02:45.358Z,100787.77
2022-09-04T10:04:34.204Z,100787.77
2022-09-04T10:06:11.078Z,100788.66
2022-09-04T10:07:46.661Z,100780.06
2022-09-04T10:09:09.504Z,100776.97
2022-09-04T10:10:22.021Z,100776.97
2022-09-04T10:11:50.083Z,100777.56
2022-09-04T10:13:16.047Z,100777.56
2022-09-04T10:14:34.748Z,100776.68
2022-09-04T10:16:07.180Z,100800.05
2022-09-04T10:17:22.997Z,100787.34
2022-09-04T10:19:04.777Z,100784.00
2022-09-04T10:20:29.765Z,100783.38
2022-09-04T10:21:57.793Z,100787.34
2022-09-04T10:23:20.694Z,100787.34
2022-09-04T10:24:49.314Z,100787.34
2022-09-04T10:26:10.455Z,100786.97
2022-09-04T10:27:43.159Z,100778.16
2022-09-04T10:29:04.998Z,100793.13
2022-09-04T10:30:12.395Z,100779.07
2022-09-04T10:31:34.438Z,100793.75
2022-09-04T10:32:50.408Z,100793.75
2022-09-04T10:34:32.163Z,100791.05
2022-09-04T10:35:39.149Z,100785.80
2022-09-04T10:37:05.367Z,100785.80
2022-09-04T10:38:27.409Z,100789.15
2022-09-04T10:39:38.574Z,100782.07
2022-09-04T10:41:14.106Z,100782.07
2022-09-04T10:42:36.779Z,100794.93
2022-09-04T10:43:49.581Z,100796.77
2022-09-04T10:45:00.307Z,100796.72
2022-09-04T10:46:23.437Z,100786.34
2022-09-04T10:47:36.495Z,100625.66
2022-09-04T10:49:10.311Z,100625.66
2022-09-04T10:50:20.216Z,100775.89
2022-09-04T10:51:41.029Z,100783.21
2022-09-04T10:53:18.366Z,100783.21
2022-09-04T10:54:33.721Z,100789.73
2022-09-04T10:55:49.531Z,100786.05
2022-09-04T10:57:12.994Z,100786.31
2022-09-04T10:58:20.024Z,100789.87
2022-09-04T10:59:34.683Z,100787.38
2022-09-04T11:00:44.821Z,100791.16
2022-09-04T11:02:18.611Z,100782.77
2022-09-04T11:03:34.521Z,100773.52
2022-09-04T11:04:58.936Z,100777.73
2022-09-04T11:06:17.342Z,100782.97
2022-09-04T11:07:37.835Z,100782.97
2022-09-04T11:08:59.556Z,100775.53
2022-09-04T11:10:06.734Z,100787.48
2022-09-04T11:11:30.151Z,100793.12
2022-09-04T11:13:01.015Z,100792.88
2022-09-04T11:14:16.699Z,100792.88
2022-09-04T11:15:47.366Z,100779.64
2022-09-04T11:17:12.511Z,100780.88
2022-09-04T11:18:36.577Z,100774.58
2022-09-04T11:20:16.171Z,100778.81
2022-09-04T11:21:35.830Z,100774.66
2022-09-04T11:22:57.999Z,100767.34
2022-09-04T11:24:31.857Z,100773.45
2022-09-04T11:25:41.398Z,100760.02
2022-09-04T11:26:55.481Z,100761.27
2022-09-04T11:28:16.792Z,100761.08
2022-09-04T11:29:43.459Z,100767.19
2022-09-04T11:30:50.525Z,100767.19
2022-09-04T11:32:15.682Z,100761.11
2022-09-04T11:33:28.584Z,100757.95
2022-09-04T11:34:47.454Z,100757.95
2022-09-04T11:36:15.640Z,100761.78
2022-09-04T11:37:39.704Z,100760.47
2022-09-04T11:39:03.028Z,100767.19
2022-09-04T11:40:15.694Z,100760.02
2022-09-04T11:41:22.701Z,100760.02
2022-09-04T11:42:41.523Z,100768.36
2022-09-04T11:44:03.471Z,100768.36
2022-09-04T11:45:26.906Z,100762.30
2022-09-04T11:46:40.060Z,100762.30
2022-09-04T11:48:01.854Z,100750.55
2022-09-04T11:49:14.884Z,100753.92
2022-09-04T11:50:36.894Z,100751.56
2022-09-04T11:52:16.879Z,100753.69
2022-09-04T11:53:54.253Z,100753.69
2022-09-04T11:55:04.296Z,100751.50
2022-09-04T11:56:27.932Z,100756.95
2022-09-04T11:57:54.431Z,100761.95
2022-09-04T11:59:22.439Z,100758.81
2022-09-04T12:00:30.683Z,100751.27
2022-09-04T12:01:47.491Z,100750.22
2022-09-04T12:03:16.813Z,100750.22
2022-09-04T12:04:39.697Z,100761.19
2022-09-04T12:06:15.617Z,100762.85
2022-09-04T12:07:54.422Z,100762.85
2022-09-04T12:09:23.741Z,100770.38
2022-09-04T12:10:47.093Z,100770.38
2022-09-04T12:12:12.029Z,100762.33
2022-09-04T12:13:42.848Z,100762.33
2022-09-04T12:15:07.548Z,100756.48
2022-09-04T12:16:18.851Z,100756.48
2022-09-04T12:17:43.675Z,100759.77
2022-09-04T12:19:15.830Z,100759.77
2022-09-04T12:20:41.778Z,100741.05
2022-09-04T12:22:00.671Z,100748.80
2022-09-04T12:23:19.427Z,100748.80
2022-09-04T12:24:38.135Z,100756.98
2022-09-04T12:26:07.280Z,100752.58
2022-09-04T12:27:33.643Z,100742.20
2022-09-04T12:28:43.303Z,100738.23
2022-09-04T12:30:12.440Z,100738.23
2022-09-04T12:31:25.309Z,100737.86
2022-09-04T12:32:32.426Z,100759.51
2022-09-04T12:33:48.396Z,100748.19
2022-09-04T12:35:15.532Z,100748.38
2022-09-04T12:36:25.450Z,100748.38
2022-09-04T12:37:52.460Z,100738.27
2022-09-04T12:39:13.688Z,100751.27
2022-09-04T12:40:49.599Z,100744.34
2022-09-04T12:42:14.458Z,100744.34
2022-09-04T12:43:47.039Z,100728.70
2022-09-04T12:44:59.633Z,100728.70
2022-09-04T12:46:42.589Z,100751.27
2022-09-04T12:48:05.750Z,100738.41
2022-09-04T12:49:15.497Z,100736.00
2022-09-04T12:50:34.609Z,100739.94
2022-09-04T12:51:48.473Z,100735.91
2022-09-04T12:53:04.285Z,100735.91
2022-09-04T12:54:28.309Z,100747.38
2022-09-04T12:55:54.785Z,100747.38
2022-09-04T12:57:20.799Z,100746.53
2022-09-04T12:58:40.924Z,100742.32
2022-09-04T13:00:02.707Z,100737.52
2022-09-04T13:01:09.891Z,100737.52
2022-09-04T13:02:34.864Z,100731.11
2022-09-04T13:04:06.034Z,100733.91
2022-09-04T13:05:32.276Z,100715.89
2022-09-04T13:06:56.169Z,100715.89
2022-09-04T13:08:06.070Z,100725.59
2022-09-04T13:09:28.978Z,100729.45
2022-09-04T13:10:38.624Z,100729.45
2022-09-04T13:12:00.611Z,100737.65
2022-09-04T13:13:22.637Z,100716.22
2022-09-04T13:15:05.823Z,100716.41
2022-09-04T13:16:33.012Z,100713.86
2022-09-04T13:18:08.505Z,100713.86
2022-09-04T13:19:43.741Z,100721.09
2022-09-04T13:21:13.100Z,100719.44
2022-09-04T13:22:39.581Z,100731.83
2022-09-04T13:23:55.387Z,100731.83
2022-09-04T13:25:26.419Z,100723.74
2022-09-04T13:26:34.196Z,100723.74
2022-09-04T13:27:59.079Z,100716.96
2022-09-04T13:29:11.888Z,100716.96
2022-09-04T13:30:24.458Z,100726.48
2022-09-04T13:31:34.604Z,100732.77
2022-09-04T13:32:59.521Z,100732.69
2022-09-04T13:34:06.540Z,100732.69
2022-09-04T13:35:36.487Z,100733.74
2022-09-04T13:36:58.653Z,100730.41
2022-09-04T13:38:23.464Z,100733.33
2022-09-04T13:40:03.542Z,100726.85
2022-09-04T13:41:30.530Z,100726.85
2022-09-04T13:42:52.575Z,100731.28
2022-09-04T13:44:02.320Z,100726.89
2022-09-04T13:45:12.027Z,100735.69
2022-09-04T13:46:19.387Z,100735.69
2022-09-04T13:47:33.151Z,100728.14
2022-09-04T13:49:00.613Z,100733.59
2022-09-04T13:50:07.611Z,100728.98
2022-09-04T13:51:29.335Z,100728.98
2022-09-04T13:52:29.034Z,100728.28
2022-09-04T13:53:38.855Z,100728.27
2022-09-04T13:54:51.730Z,100732.79
2022-09-04T13:55:58.738Z,100745.81
2022-09-04T13:57:11.602Z,100745.81
2022-09-04T13:58:18.642Z,100737.80
2022-09-04T13:59:23.875Z,100737.80
2022-09-04T14:00:31.764Z,100728.87
2022-09-04T14:01:42.236Z,100728.87
2022-09-04T14:02:48.802Z,100721.51
2022-09-04T14:03:58.642Z,100721.51
2022-09-04T14:05:18.787Z,100733.84
2022-09-04T14:06:25.563Z,100733.84
2022-09-04T14:07:32.675Z,100732.35
2022-09-04T14:08:41.028Z,100732.35
2022-09-04T14:09:47.797Z,100732.97
2022-09-04T14:10:57.847Z,100732.97
2022-09-04T14:12:18.463Z,100741.77
2022-09-04T14:13:34.972Z,100738.86
2022-09-04T14:14:59.773Z,100734.23
2022-09-04T14:16:06.529Z,100738.86
2022-09-04T14:17:11.086Z,100732.41
2022-09-04T14:18:24.144Z,100733.44
2022-09-04T14:19:41.878Z,100733.44
2022-09-04T14:21:03.461Z,100738.89
2022-09-04T14:23:45.292Z,100735.17
2022-09-04T14:25:06.752Z,100731.45
2022-09-04T14:26:12.689Z,100731.27
2022-09-04T14:27:37.802Z,100732.28
2022-09-04T14:28:50.783Z,100732.28
2022-09-04T14:30:05.246Z,100730.61
2022-09-04T14:31:34.044Z,100730.61
2022-09-04T14:32:06.706Z,100738.89
2022-09-04T14:32:54.556Z,100736.90
2022-09-04T14:34:06.336Z,100732.50
2022-09-04T14:35:35.316Z,100732.50
2022-09-04T14:36:42.650Z,100741.43
2022-09-04T14:38:12.706Z,100741.43
2022-09-04T14:39:25.768Z,100743.88
2022-09-04T14:40:35.864Z,100744.02
2022-09-04T14:41:55.019Z,100744.64
2022-09-04T14:43:06.295Z,100744.64
2022-09-04T14:44:26.520Z,100733.73
2022-09-04T14:45:52.773Z,100750.09
2022-09-04T14:47:07.269Z,100742.32
2022-09-04T14:48:13.212Z,100746.68
2022-09-04T14:49:20.229Z,100749.22
2022-09-04T14:50:27.785Z,100747.91
2022-09-04T14:51:40.719Z,100742.28
2022-09-04T14:52:50.790Z,100754.56
2022-09-04T14:53:55.321Z,100737.38
2022-09-04T14:55:00.764Z,100751.01
2022-09-04T14:56:13.256Z,100748.68
2022-09-04T14:57:23.230Z,100744.91
2022-09-04T14:58:30.243Z,100744.91
2022-09-04T14:59:39.243Z,100754.53
2022-09-04T15:01:05.838Z,100753.22
2022-09-04T15:02:12.869Z,100757.25
2022-09-04T15:03:21.472Z,100757.25
2022-09-04T15:04:32.525Z,100751.98
2022-09-04T15:05:52.327Z,100750.05
2022-09-04T15:07:11.358Z,100750.05
2022-09-04T15:08:10.093Z,100754.27
2022-09-04T15:09:30.411Z,100754.27
2022-09-04T15:10:37.970Z,100758.41
2022-09-04T15:11:46.448Z,100757.79
2022-09-04T15:13:17.071Z,100757.79
2022-09-04T15:14:29.760Z,100759.46